Time;durP1;ratioP1;P1;durP2;ratioP2;P2;SDS_P1;SDS_P2;PMS_P1;PMS_P2;Temp;Humidity;BMP_temperature;BMP_pressure;BME280_temperature;BME280_humidity;BME280_pressure;Samples;Min_cycle;Max_cycle;Signal;HPM_P1;HPM_P2
2023/03/06 03:02:15;;;;;;;25.27;20.13;;;3.10;99.90;;;;;;5216190;23;20237;-80
2023/03/06 03:04:44;;;;;;;23.97;20.63;;;3.10;99.90;;;;;;4967672;28;20300;-80
2023/03/06 03:07:11;;;;;;;24.83;19.90;;;3.10;99.90;;;;;;4968353;28;20195;-80
2023/03/06 03:09:39;;;;;;;23.93;19.40;;;3.10;99.90;;;;;;4963464;28;20234;-80
2023/03/06 03:12:07;;;;;;;22.87;19.90;;;3.00;99.90;;;;;;4969678;28;20226;-81
2023/03/06 03:14:34;;;;;;;22.70;19.90;;;3.00;99.90;;;;;;4967412;28;20201;-80
2023/03/06 03:17:03;;;;;;;28.70;21.67;;;3.00;99.90;;;;;;4968012;28;20216;-80
2023/03/06 03:19:31;;;;;;;26.57;20.53;;;3.00;99.90;;;;;;4972038;28;20201;-79
2023/03/06 03:21:58;;;;;;;25.70;20.00;;;3.00;99.90;;;;;;4968861;28;20217;-79
2023/03/06 03:24:25;;;;;;;27.77;20.93;;;3.00;99.90;;;;;;4963683;28;20245;-81
2023/03/06 03:26:54;;;;;;;24.13;19.97;;;3.00;99.90;;;;;;4968965;28;20210;-80
2023/03/06 03:29:23;;;;;;;28.80;21.10;;;3.00;99.90;;;;;;4971639;28;20222;-80
2023/03/06 03:31:50;;;;;;;21.97;18.97;;;3.00;99.90;;;;;;4969623;28;20647;-79
2023/03/06 03:34:17;;;;;;;23.57;19.47;;;3.00;99.90;;;;;;4956902;28;20198;-79
2023/03/06 03:36:46;;;;;;;25.27;20.47;;;3.10;99.90;;;;;;4968686;28;20197;-79
2023/03/06 03:39:14;;;;;;;24.77;19.87;;;3.00;99.90;;;;;;4961102;28;20198;-80
2023/03/06 03:41:42;;;;;;;26.50;20.93;;;3.00;99.90;;;;;;4962304;28;20225;-84
2023/03/06 03:44:10;;;;;;;26.10;21.33;;;3.00;99.90;;;;;;4967039;28;20203;-80
2023/03/06 03:46:37;;;;;;;25.23;20.83;;;3.00;99.90;;;;;;4963596;28;20223;-79
2023/03/06 03:49:07;;;;;;;32.77;23.23;;;3.00;99.90;;;;;;4971897;28;20201;-79
2023/03/06 03:51:34;;;;;;;30.17;21.67;;;3.00;99.90;;;;;;4956939;28;20604;-82
2023/03/06 03:54:02;;;;;;;28.53;22.10;;;3.00;99.90;;;;;;4957774;28;20257;-83
2023/03/06 03:56:35;;;;;;;28.83;21.30;;;3.00;99.90;;;;;;4953166;28;20193;-82
2023/03/06 03:59:10;;;;;;;30.83;20.87;;;2.90;99.90;;;;;;4956566;28;20703;-83
2023/03/06 04:01:45;;;;;;;28.00;21.63;;;2.90;99.90;;;;;;4956664;28;20230;-83
2023/03/06 04:04:12;;;;;;;29.43;21.33;;;2.90;99.90;;;;;;4957482;28;20194;-85
2023/03/06 04:06:40;;;;;;;27.10;21.53;;;2.90;99.90;;;;;;4956700;28;20218;-81
2023/03/06 04:09:08;;;;;;;32.33;22.40;;;2.90;99.90;;;;;;4954914;28;20206;-83
2023/03/06 04:11:37;;;;;;;28.33;22.50;;;2.90;99.90;;;;;;4954222;28;20253;-82
2023/03/06 04:14:07;;;;;;;29.80;22.13;;;2.90;99.90;;;;;;4956086;28;20274;-86
2023/03/06 04:16:35;;;;;;;23.47;20.30;;;2.90;99.90;;;;;;4962698;28;20276;-79
2023/03/06 04:19:01;;;;;;;25.27;21.57;;;2.90;99.90;;;;;;4948754;28;20203;-85
2023/03/06 04:21:29;;;;;;;26.70;20.67;;;2.90;99.90;;;;;;4971830;28;20265;-83
2023/03/06 04:23:57;;;;;;;28.50;21.27;;;2.90;99.90;;;;;;4968023;28;20226;-83
2023/03/06 04:26:26;;;;;;;26.07;21.40;;;2.90;99.90;;;;;;4969981;28;20574;-83
2023/03/06 04:28:54;;;;;;;26.53;20.87;;;2.90;99.90;;;;;;4954957;28;20689;-83
2023/03/06 04:31:21;;;;;;;26.97;20.90;;;2.90;99.90;;;;;;4972894;28;20856;-81
2023/03/06 04:33:48;;;;;;;22.50;20.00;;;2.90;99.90;;;;;;4972418;28;20290;-81
2023/03/06 04:36:26;;;;;;;23.23;20.00;;;2.90;99.90;;;;;;4969431;28;20197;-83
2023/03/06 04:38:56;;;;;;;22.70;19.93;;;2.90;99.90;;;;;;4960060;28;20209;-86
2023/03/06 04:41:25;;;;;;;24.67;20.40;;;2.90;99.90;;;;;;4972015;28;20213;-83
2023/03/06 04:43:52;;;;;;;22.30;19.27;;;2.90;99.90;;;;;;4970530;28;20202;-83
2023/03/06 04:46:19;;;;;;;24.57;18.97;;;2.90;99.90;;;;;;4970557;28;20214;-83
2023/03/06 04:48:46;;;;;;;22.43;19.30;;;2.90;99.90;;;;;;4964605;28;20246;-79
2023/03/06 04:51:13;;;;;;;22.03;18.40;;;2.90;99.90;;;;;;4953961;28;20231;-78
2023/03/06 04:53:40;;;;;;;24.07;20.07;;;2.90;99.90;;;;;;4976219;28;20198;-82
2023/03/06 04:56:07;;;;;;;23.40;19.40;;;2.90;99.90;;;;;;4960868;28;20224;-78
2023/03/06 04:58:36;;;;;;;26.50;20.30;;;2.90;99.90;;;;;;4967300;28;20721;-80
2023/03/06 05:01:03;;;;;;;23.13;20.13;;;2.90;99.90;;;;;;4970402;28;20242;-80
2023/03/06 05:03:30;;;;;;;24.27;20.27;;;2.90;99.90;;;;;;4968916;28;20225;-80
2023/03/06 05:05:56;;;;;;;22.23;19.13;;;2.90;99.90;;;;;;4970618;28;20219;-79
2023/03/06 05:08:23;;;;;;;23.17;20.50;;;2.90;99.90;;;;;;4972334;28;20201;-80
2023/03/06 05:10:54;;;;;;;24.47;20.43;;;2.90;99.90;;;;;;4972334;28;20229;-79
2023/03/06 05:13:21;;;;;;;23.97;20.27;;;2.90;99.90;;;;;;4960098;28;20194;-79
2023/03/06 05:15:49;;;;;;;23.97;20.23;;;2.90;99.90;;;;;;4971532;28;20335;-78
2023/03/06 05:18:16;;;;;;;22.33;19.33;;;2.80;99.90;;;;;;4966785;28;20200;-79
2023/03/06 05:20:43;;;;;;;23.90;19.47;;;2.90;99.90;;;;;;4971459;28;20285;-79
2023/03/06 05:23:10;;;;;;;22.47;19.73;;;2.90;99.90;;;;;;4966323;28;20217;-79
2023/03/06 05:25:39;;;;;;;22.27;19.03;;;2.90;99.90;;;;;;4964389;28;20300;-82
2023/03/06 05:28:06;;;;;;;21.77;18.53;;;2.90;99.90;;;;;;4968590;28;20592;-81
2023/03/06 05:30:33;;;;;;;22.40;20.20;;;2.90;99.90;;;;;;4966432;28;20982;-79
2023/03/06 05:33:01;;;;;;;22.37;19.70;;;2.90;99.90;;;;;;4974038;28;20202;-80
2023/03/06 05:35:28;;;;;;;22.80;18.53;;;2.90;99.90;;;;;;4968973;28;20194;-79
2023/03/06 05:37:55;;;;;;;21.13;18.03;;;2.90;99.90;;;;;;4974483;28;20220;-78
2023/03/06 05:40:21;;;;;;;21.07;18.27;;;2.90;99.90;;;;;;4967772;28;20232;-79
2023/03/06 05:42:48;;;;;;;21.17;18.97;;;2.90;99.90;;;;;;4971369;28;20202;-80
2023/03/06 05:45:15;;;;;;;20.33;17.67;;;2.90;99.90;;;;;;4971227;28;20205;-80
2023/03/06 05:47:42;;;;;;;19.87;17.53;;;2.90;99.90;;;;;;4971407;28;20207;-79
2023/03/06 05:50:12;;;;;;;19.40;17.43;;;2.90;99.90;;;;;;4972638;28;20202;-79
2023/03/06 05:52:39;;;;;;;19.47;17.57;;;2.90;99.90;;;;;;4968105;28;20221;-79
2023/03/06 05:55:08;;;;;;;20.53;18.03;;;2.90;99.90;;;;;;4973484;28;20225;-78
2023/03/06 05:57:34;;;;;;;21.90;19.43;;;2.90;99.90;;;;;;4971602;28;20209;-79
2023/03/06 06:00:02;;;;;;;23.10;18.60;;;2.90;99.90;;;;;;4965655;28;20254;-80
2023/03/06 06:02:39;;;;;;;19.50;16.80;;;2.90;99.90;;;;;;4970665;28;20237;-80
2023/03/06 06:05:07;;;;;;;19.10;17.10;;;2.90;99.90;;;;;;4969572;28;20197;-80
2023/03/06 06:07:35;;;;;;;19.77;17.30;;;2.90;99.90;;;;;;4972612;28;20762;-79
2023/03/06 06:10:02;;;;;;;21.87;18.27;;;2.90;99.90;;;;;;4967362;28;20203;-80
2023/03/06 06:12:29;;;;;;;19.07;17.27;;;2.90;99.90;;;;;;4973299;28;20655;-81
2023/03/06 06:14:56;;;;;;;21.97;18.50;;;2.90;99.90;;;;;;4975915;28;20220;-80
2023/03/06 06:17:23;;;;;;;20.53;18.00;;;2.90;99.90;;;;;;4969927;28;20198;-81
2023/03/06 06:19:50;;;;;;;18.27;16.33;;;2.90;99.90;;;;;;4962315;28;20735;-79
2023/03/06 06:22:17;;;;;;;21.53;18.20;;;2.90;99.90;;;;;;4964838;28;20218;-80
2023/03/06 06:24:45;;;;;;;20.63;18.43;;;2.90;99.90;;;;;;4974489;28;20225;-79
2023/03/06 06:27:12;;;;;;;19.87;17.87;;;3.00;99.90;;;;;;4973327;28;20230;-79
2023/03/06 06:29:38;;;;;;;23.93;18.43;;;2.90;99.90;;;;;;4973796;28;20202;-80
2023/03/06 06:32:06;;;;;;;21.80;17.70;;;3.00;99.90;;;;;;4976514;28;20221;-80
2023/03/06 06:34:33;;;;;;;19.33;17.13;;;3.00;99.90;;;;;;4970027;28;20202;-79
2023/03/06 06:37:00;;;;;;;21.00;17.50;;;3.00;99.90;;;;;;4966290;28;20570;-79
2023/03/06 06:39:27;;;;;;;18.47;16.17;;;3.00;99.90;;;;;;4961183;28;20253;-79
2023/03/06 06:41:55;;;;;;;22.03;18.23;;;3.10;99.90;;;;;;4972360;28;20232;-82
2023/03/06 06:44:22;;;;;;;20.07;17.97;;;3.10;99.90;;;;;;4969024;28;20277;-82
2023/03/06 06:46:49;;;;;;;18.93;16.70;;;3.00;99.90;;;;;;4966999;28;20215;-80
2023/03/06 06:49:17;;;;;;;20.17;18.10;;;3.00;99.90;;;;;;4971685;28;20194;-78
2023/03/06 06:51:44;;;;;;;19.63;17.57;;;3.00;99.90;;;;;;4967352;28;20221;-78
2023/03/06 06:54:11;;;;;;;18.30;16.50;;;3.00;99.90;;;;;;4972778;28;20206;-78
2023/03/06 06:56:38;;;;;;;18.83;16.93;;;3.10;99.90;;;;;;4972000;28;20190;-83
2023/03/06 06:59:07;;;;;;;19.30;17.40;;;3.10;99.90;;;;;;4952200;28;20207;-82
2023/03/06 07:01:33;;;;;;;18.20;16.37;;;3.10;99.90;;;;;;4972016;28;20255;-85
2023/03/06 07:04:00;;;;;;;20.25;18.25;;;3.10;99.90;;;;;;4966780;28;20455;-83
2023/03/06 07:06:27;;;;;;;20.57;17.43;;;3.10;99.90;;;;;;4971710;28;20214;-81
2023/03/06 07:08:54;;;;;;;18.90;17.00;;;3.20;99.90;;;;;;4974199;28;20202;-83
2023/03/06 07:11:21;;;;;;;21.70;17.63;;;3.20;99.90;;;;;;4970064;28;20218;-79
2023/03/06 07:13:48;;;;;;;20.13;17.27;;;3.20;99.90;;;;;;4961411;28;20264;-78
2023/03/06 07:16:17;;;;;;;19.40;17.50;;;3.30;99.90;;;;;;4967500;28;20198;-78
2023/03/06 07:18:44;;;;;;;21.07;16.37;;;3.30;99.90;;;;;;4973462;28;20202;-78
2023/03/06 07:21:11;;;;;;;19.13;16.53;;;3.30;99.90;;;;;;4972982;28;20293;-78
2023/03/06 07:23:37;;;;;;;18.53;16.47;;;3.40;99.90;;;;;;4973745;28;20198;-78
2023/03/06 07:26:05;;;;;;;19.40;17.03;;;3.40;99.90;;;;;;4975272;28;20217;-78
2023/03/06 07:28:32;;;;;;;18.60;16.70;;;3.30;99.90;;;;;;4970158;28;20261;-78
2023/03/06 07:30:58;;;;;;;19.07;17.20;;;3.40;99.90;;;;;;4969416;28;20301;-78
2023/03/06 07:33:27;;;;;;;19.57;17.57;;;3.40;99.90;;;;;;4969572;28;20204;-78
2023/03/06 07:35:53;;;;;;;19.27;17.27;;;3.40;99.90;;;;;;4972565;28;20264;-77
2023/03/06 07:38:20;;;;;;;20.50;17.40;;;3.40;99.90;;;;;;4972078;28;20245;-77
2023/03/06 07:40:50;;;;;;;18.20;16.30;;;3.50;99.90;;;;;;4965141;28;20223;-78
2023/03/06 07:43:18;;;;;;;19.50;17.30;;;3.60;99.90;;;;;;4959361;28;20549;-76
2023/03/06 07:45:56;;;;;;;20.13;18.03;;;3.60;99.90;;;;;;4956152;28;20209;-78
2023/03/06 07:48:23;;;;;;;22.97;17.77;;;3.80;99.90;;;;;;4967922;28;20280;-77
2023/03/06 07:50:57;;;;;;;18.93;16.97;;;3.90;99.90;;;;;;4957226;28;20250;-78
2023/03/06 07:53:24;;;;;;;18.80;16.83;;;4.00;99.90;;;;;;4957335;28;20197;-77
2023/03/06 07:55:51;;;;;;;17.77;16.07;;;4.10;99.90;;;;;;4957366;28;20207;-78
2023/03/06 07:58:18;;;;;;;19.80;17.73;;;4.20;99.90;;;;;;4956993;28;20195;-78
2023/03/06 08:00:45;;;;;;;18.47;16.57;;;4.20;99.90;;;;;;4970953;28;20226;-78
2023/03/06 08:03:12;;;;;;;19.40;17.40;;;4.30;99.90;;;;;;4958317;28;20221;-78
2023/03/06 08:05:39;;;;;;;20.03;17.93;;;4.40;99.90;;;;;;4970689;28;20198;-77
2023/03/06 08:08:07;;;;;;;21.03;17.80;;;4.50;99.90;;;;;;4969327;28;20669;-78
2023/03/06 08:10:34;;;;;;;19.57;17.47;;;4.60;99.90;;;;;;4972521;28;20707;-78
2023/03/06 08:13:01;;;;;;;19.77;17.53;;;4.80;99.90;;;;;;4970439;28;20206;-77
2023/03/06 08:15:28;;;;;;;20.50;17.70;;;4.90;99.90;;;;;;4972650;28;20559;-78
2023/03/06 08:17:55;;;;;;;18.87;16.90;;;4.90;99.90;;;;;;4972655;28;20206;-78
2023/03/06 08:20:22;;;;;;;19.57;17.10;;;5.00;99.90;;;;;;4960145;28;20628;-78
2023/03/06 08:22:48;;;;;;;19.43;17.43;;;5.10;99.90;;;;;;4959708;28;20627;-78
2023/03/06 08:25:17;;;;;;;19.40;17.20;;;5.10;99.90;;;;;;4966533;28;20206;-78
2023/03/06 08:27:45;;;;;;;18.53;16.53;;;5.10;99.90;;;;;;4965325;28;20270;-78
2023/03/06 08:30:13;;;;;;;18.73;16.73;;;5.20;99.90;;;;;;4963636;28;20698;-78
2023/03/06 08:32:40;;;;;;;20.70;18.57;;;5.20;99.90;;;;;;4961701;28;20223;-78
2023/03/06 08:35:07;;;;;;;20.37;17.97;;;5.30;99.90;;;;;;4971475;28;20236;-78
2023/03/06 08:37:34;;;;;;;18.63;16.77;;;5.50;99.90;;;;;;4969584;28;20258;-81
2023/03/06 08:40:03;;;;;;;19.07;17.27;;;5.60;99.90;;;;;;4968855;28;20238;-82
2023/03/06 08:42:31;;;;;;;19.03;17.07;;;5.70;99.90;;;;;;4968710;28;20588;-82
2023/03/06 08:44:58;;;;;;;18.80;16.83;;;5.80;99.90;;;;;;4971921;28;20262;-82
2023/03/06 08:47:25;;;;;;;17.57;15.87;;;5.90;99.90;;;;;;4970752;28;20228;-80
2023/03/06 08:49:52;;;;;;;19.00;16.97;;;6.00;99.90;;;;;;4963480;28;20229;-80
2023/03/06 08:52:19;;;;;;;19.27;17.27;;;6.00;99.90;;;;;;4965656;28;20221;-82
2023/03/06 08:54:46;;;;;;;19.33;17.43;;;6.30;99.90;;;;;;4972351;28;20276;-82
2023/03/06 08:57:13;;;;;;;19.33;17.33;;;6.40;99.90;;;;;;4959962;28;20205;-82
2023/03/06 08:59:42;;;;;;;19.10;17.10;;;6.40;99.90;;;;;;4968436;28;20208;-81
2023/03/06 09:02:13;;;;;;;19.23;17.20;;;6.50;99.90;;;;;;4963942;28;20232;-80
2023/03/06 09:04:40;;;;;;;18.83;16.93;;;6.50;99.90;;;;;;4964522;28;20207;-80
2023/03/06 09:07:07;;;;;;;18.23;16.43;;;6.50;99.90;;;;;;4968258;28;20221;-82
2023/03/06 09:09:34;;;;;;;18.10;16.10;;;6.60;99.90;;;;;;4956294;28;20265;-82
2023/03/06 09:12:01;;;;;;;17.90;16.20;;;6.70;99.90;;;;;;4968228;28;20288;-82
2023/03/06 09:14:28;;;;;;;18.03;16.13;;;6.70;99.90;;;;;;4973776;28;20201;-82
2023/03/06 09:16:56;;;;;;;17.30;15.60;;;6.80;99.90;;;;;;4972337;28;20225;-79
2023/03/06 09:19:23;;;;;;;18.77;16.83;;;6.70;99.90;;;;;;4970013;28;20225;-83
2023/03/06 09:21:50;;;;;;;17.43;15.70;;;6.60;99.90;;;;;;4967765;28;20228;-77
2023/03/06 09:24:17;;;;;;;17.37;15.67;;;6.50;99.90;;;;;;4966875;28;20205;-77
2023/03/06 09:26:43;;;;;;;18.17;16.30;;;6.40;99.90;;;;;;4968454;28;20280;-80
2023/03/06 09:29:11;;;;;;;17.10;15.30;;;6.30;99.90;;;;;;4973935;28;20216;-80
2023/03/06 09:31:38;;;;;;;17.03;15.40;;;6.20;99.90;;;;;;4973864;28;20275;-78
2023/03/06 09:34:06;;;;;;;18.10;16.20;;;6.10;99.90;;;;;;4972881;28;20753;-79
2023/03/06 09:36:33;;;;;;;17.13;15.50;;;6.00;99.90;;;;;;4968644;28;20201;-78
2023/03/06 09:39:00;;;;;;;16.47;15.03;;;5.90;99.90;;;;;;4959362;28;20264;-78
2023/03/06 09:41:30;;;;;;;18.20;16.30;;;5.90;99.90;;;;;;4957334;28;20296;-80
2023/03/06 09:44:04;;;;;;;18.10;16.17;;;5.80;99.90;;;;;;4970340;28;20675;-79
2023/03/06 09:46:45;;;;;;;17.90;16.10;;;5.80;99.90;;;;;;4969799;28;20200;-78
2023/03/06 09:49:46;;;;;;;17.80;15.13;;;5.70;99.90;;;;;;4968725;28;20260;-79
2023/03/06 09:52:31;;;;;;;17.57;15.77;;;5.70;99.90;;;;;;4962966;28;20346;-84
2023/03/06 09:55:02;;;;;;;16.83;15.17;;;5.60;99.90;;;;;;4970237;28;20210;-78
2023/03/06 09:57:34;;;;;;;15.90;14.30;;;5.70;99.90;;;;;;4959759;28;20208;-79
2023/03/06 10:00:04;;;;;;;17.10;15.30;;;5.70;99.90;;;;;;4964996;28;20565;-79
2023/03/06 10:02:38;;;;;;;16.67;15.00;;;5.70;99.90;;;;;;4970503;28;20252;-79
2023/03/06 10:05:13;;;;;;;16.80;15.20;;;5.70;99.90;;;;;;4964542;28;20207;-79
2023/03/06 10:07:45;;;;;;;16.10;14.50;;;5.80;99.90;;;;;;4968753;28;20223;-79
2023/03/06 10:10:19;;;;;;;17.13;15.50;;;5.90;99.90;;;;;;4966954;28;20205;-79
2023/03/06 10:12:53;;;;;;;18.73;15.57;;;6.10;99.90;;;;;;4965792;28;20225;-79
2023/03/06 10:15:24;;;;;;;16.70;15.13;;;6.20;99.90;;;;;;4956820;28;20663;-80
2023/03/06 10:17:52;;;;;;;17.73;16.07;;;6.30;99.90;;;;;;4967656;28;20279;-79
2023/03/06 10:20:23;;;;;;;17.90;15.47;;;6.40;99.90;;;;;;4972013;28;20210;-79
2023/03/06 10:23:25;;;;;;;17.10;15.33;;;6.60;99.90;;;;;;4970270;28;20201;-79
2023/03/06 10:25:59;;;;;;;16.67;14.53;;;6.60;99.90;;;;;;4955346;28;20300;-79
2023/03/06 10:28:29;;;;;;;15.83;14.27;;;6.60;99.90;;;;;;4961251;28;20229;-79
2023/03/06 10:31:02;;;;;;;16.53;14.80;;;6.60;99.90;;;;;;4967204;28;20226;-79
2023/03/06 10:33:40;;;;;;;16.23;14.57;;;6.80;99.90;;;;;;4970857;28;20205;-78
2023/03/06 10:36:12;;;;;;;15.63;13.97;;;7.10;99.90;;;;;;4971552;28;20202;-78
2023/03/06 10:38:39;;;;;;;15.87;14.27;;;7.50;99.90;;;;;;4968320;28;20244;-79
2023/03/06 10:41:08;;;;;;;15.80;14.20;;;7.90;99.90;;;;;;4967098;28;20222;-78
2023/03/06 10:43:36;;;;;;;16.63;15.00;;;8.30;99.90;;;;;;4958610;28;20639;-79
2023/03/06 10:46:04;;;;;;;16.93;15.23;;;8.50;99.90;;;;;;4965818;28;20269;-79
2023/03/06 10:48:34;;;;;;;16.90;15.30;;;8.50;99.90;;;;;;4969152;28;20768;-79
2023/03/06 10:51:17;;;;;;;15.93;14.43;;;8.40;99.90;;;;;;4954548;28;20238;-78
2023/03/06 10:53:52;;;;;;;15.57;14.17;;;8.40;99.90;;;;;;4968505;28;20204;-78
2023/03/06 10:56:30;;;;;;;16.50;14.80;;;8.40;99.90;;;;;;4956719;28;20198;-82
2023/03/06 10:59:10;;;;;;;15.53;13.90;;;8.20;99.90;;;;;;4962520;28;20265;-85
2023/03/06 11:01:39;;;;;;;16.20;13.13;;;8.10;99.90;;;;;;4966919;28;20233;-84
2023/03/06 11:04:17;;;;;;;14.13;12.60;;;8.00;99.90;;;;;;4965189;28;20221;-81
2023/03/06 11:06:45;;;;;;;14.63;13.23;;;7.80;99.90;;;;;;4968350;28;20206;-82
2023/03/06 11:09:20;;;;;;;15.90;14.30;;;7.80;99.90;;;;;;4955289;28;20223;-84
2023/03/06 11:11:47;;;;;;;17.33;15.53;;;7.50;99.90;;;;;;4964524;28;20305;-83
2023/03/06 11:14:15;;;;;;;16.30;14.57;;;7.30;99.90;;;;;;4969500;28;20738;-83
2023/03/06 11:16:51;;;;;;;16.60;14.27;;;7.20;99.90;;;;;;4969843;28;20194;-83
2023/03/06 11:19:21;;;;;;;16.67;14.60;;;7.10;99.90;;;;;;4968705;28;20293;-85
2023/03/06 11:22:01;;;;;;;16.60;14.70;;;7.10;99.90;;;;;;4971413;28;20298;-84
2023/03/06 11:24:35;;;;;;;16.33;14.70;;;7.20;99.90;;;;;;4965454;28;20193;-80
2023/03/06 11:27:15;;;;;;;16.57;14.73;;;7.30;99.90;;;;;;4970154;28;20686;-81
2023/03/06 11:29:44;;;;;;;16.37;14.77;;;7.60;99.90;;;;;;4959479;28;20747;-80
2023/03/06 11:32:16;;;;;;;16.40;14.77;;;7.80;99.90;;;;;;4968101;28;20226;-81
2023/03/06 11:34:48;;;;;;;16.53;15.03;;;7.90;99.90;;;;;;4969982;28;20199;-79
2023/03/06 11:37:23;;;;;;;17.10;15.30;;;7.90;99.90;;;;;;4967052;28;20202;-80
2023/03/06 11:39:58;;;;;;;16.30;14.80;;;7.90;99.90;;;;;;4969573;28;20202;-81
2023/03/06 11:42:29;;;;;;;16.30;14.70;;;8.00;99.90;;;;;;4956703;28;20221;-80
2023/03/06 11:45:08;;;;;;;15.50;14.00;;;8.00;99.90;;;;;;4967912;28;20209;-80
2023/03/06 11:47:38;;;;;;;15.20;13.80;;;8.00;99.90;;;;;;4960072;28;20721;-80
2023/03/06 11:50:17;;;;;;;16.43;14.77;;;8.00;99.90;;;;;;4954790;28;20238;-80
2023/03/06 11:52:50;;;;;;;14.83;13.30;;;8.00;99.90;;;;;;4953428;28;20727;-80
2023/03/06 11:55:24;;;;;;;15.20;13.90;;;8.00;99.90;;;;;;4951656;28;20219;-80
2023/03/06 11:57:59;;;;;;;15.20;13.60;;;8.10;99.90;;;;;;4953035;28;20206;-80
2023/03/06 12:00:37;;;;;;;15.20;13.80;;;8.10;99.90;;;;;;4964692;28;20233;-79
2023/03/06 12:03:33;;;;;;;13.47;12.23;;;8.00;99.90;;;;;;4961819;28;20253;-79
2023/03/06 12:06:04;;;;;;;15.63;14.03;;;8.00;99.90;;;;;;4957815;28;20210;-80
2023/03/06 12:08:52;;;;;;;14.33;13.00;;;8.00;99.90;;;;;;4949862;28;20215;-80
2023/03/06 12:11:23;;;;;;;14.00;12.63;;;7.90;99.90;;;;;;4956415;28;20222;-79
2023/03/06 12:14:09;;;;;;;13.10;11.93;;;8.00;99.90;;;;;;4955883;28;20202;-80
2023/03/06 12:16:52;;;;;;;12.93;11.80;;;8.00;99.90;;;;;;4950155;28;20203;-80
2023/03/06 12:19:37;;;;;;;13.50;12.27;;;8.10;99.90;;;;;;4955375;28;20207;-81
2023/03/06 12:22:18;;;;;;;12.50;11.40;;;8.10;99.90;;;;;;4962558;28;20238;-80
2023/03/06 12:25:00;;;;;;;12.53;11.50;;;8.00;99.90;;;;;;4955800;28;20318;-82
2023/03/06 12:27:33;;;;;;;12.97;11.87;;;8.10;99.90;;;;;;4956454;28;20194;-80
2023/03/06 12:30:15;;;;;;;14.43;13.03;;;8.20;99.90;;;;;;4948658;28;20203;-80
2023/03/06 12:32:52;;;;;;;14.17;12.87;;;8.20;99.90;;;;;;4954474;28;20222;-80
2023/03/06 12:35:45;;;;;;;13.63;12.33;;;8.50;99.90;;;;;;4955744;28;20739;-79
2023/03/06 12:38:33;;;;;;;14.93;13.43;;;8.70;99.90;;;;;;4951672;28;20213;-80
2023/03/06 12:41:16;;;;;;;14.20;12.83;;;8.90;99.90;;;;;;4949701;28;20298;-80
2023/03/06 12:44:15;;;;;;;13.90;12.70;;;8.90;99.90;;;;;;4948833;28;20299;-79
2023/03/06 12:46:46;;;;;;;14.03;12.77;;;8.90;99.90;;;;;;4952533;28;20211;-79
2023/03/06 12:49:22;;;;;;;14.60;13.20;;;8.80;99.90;;;;;;4943710;28;20237;-81
2023/03/06 12:51:51;;;;;;;14.60;13.00;;;8.70;99.90;;;;;;4948737;28;20278;-80
2023/03/06 12:54:24;;;;;;;14.10;12.70;;;8.70;99.90;;;;;;4962476;28;20214;-80
2023/03/06 12:57:01;;;;;;;13.90;12.60;;;8.70;99.90;;;;;;4959607;28;20594;-80
2023/03/06 12:59:46;;;;;;;13.03;11.83;;;8.80;99.90;;;;;;4951657;28;20203;-80
2023/03/06 13:02:57;;;;;;;12.70;11.60;;;8.90;99.90;;;;;;4954186;28;20242;-82
2023/03/06 13:05:46;;;;;;;13.00;11.90;;;9.00;99.90;;;;;;4957919;28;20207;-79
2023/03/06 13:08:52;;;;;;;13.87;12.57;;;9.00;99.90;;;;;;4948540;28;20234;-79
2023/03/06 13:11:27;;;;;;;13.03;11.83;;;8.90;99.90;;;;;;4955789;28;20282;-80
2023/03/06 13:13:56;;;;;;;13.70;12.30;;;8.80;99.90;;;;;;4955440;28;20221;-79
2023/03/06 13:16:29;;;;;;;13.73;12.53;;;8.80;99.90;;;;;;4957119;28;20202;-79
2023/03/06 13:19:04;;;;;;;14.07;12.87;;;8.90;99.90;;;;;;4959380;28;20198;-79
2023/03/06 13:22:00;;;;;;;14.07;12.73;;;8.90;99.90;;;;;;4962838;28;20225;-79
2023/03/06 13:24:28;;;;;;;13.80;12.70;;;8.80;99.90;;;;;;4952397;28;20195;-79
2023/03/06 13:26:58;;;;;;;13.97;12.67;;;8.80;99.90;;;;;;4953976;28;20250;-80
2023/03/06 13:30:24;;;;;;;14.50;13.10;;;9.00;99.90;;;;;;4961885;28;20249;-79
2023/03/06 13:32:53;;;;;;;13.40;12.30;;;8.90;99.90;;;;;;4956684;28;20241;-79
2023/03/06 13:35:57;;;;;;;13.70;12.40;;;8.90;99.90;;;;;;4964036;28;20210;-79
2023/03/06 13:38:32;;;;;;;14.07;12.77;;;8.90;99.90;;;;;;4961964;28;20265;-79
2023/03/06 13:41:34;;;;;;;13.97;12.67;;;8.80;99.90;;;;;;4955666;28;20724;-79
2023/03/06 13:44:07;;;;;;;14.37;13.07;;;8.80;99.90;;;;;;4953547;28;20258;-80
2023/03/06 13:46:36;;;;;;;13.77;12.57;;;8.80;99.90;;;;;;4950306;28;20221;-79
2023/03/06 13:49:14;;;;;;;13.47;12.37;;;8.70;99.90;;;;;;4963136;28;20250;-79
2023/03/06 13:51:55;;;;;;;13.43;12.30;;;8.60;99.90;;;;;;4939347;28;20227;-79
2023/03/06 13:54:36;;;;;;;13.00;11.90;;;8.40;99.90;;;;;;4961701;28;20214;-79
2023/03/06 13:57:36;;;;;;;13.33;12.07;;;8.40;99.90;;;;;;4945419;28;20202;-79
2023/03/06 14:00:23;;;;;;;13.17;12.07;;;8.30;99.90;;;;;;4951144;28;20245;-79
2023/03/06 14:03:03;;;;;;;13.10;12.00;;;8.40;99.90;;;;;;4950857;28;20623;-82
2023/03/06 14:05:42;;;;;;;13.17;11.97;;;8.40;99.90;;;;;;4951139;28;20221;-80
2023/03/06 14:08:11;;;;;;;13.30;12.20;;;8.40;99.90;;;;;;4963053;28;20214;-83
2023/03/06 14:10:39;;;;;;;13.37;12.17;;;8.40;99.90;;;;;;4963594;28;20213;-79
2023/03/06 14:13:13;;;;;;;13.40;12.20;;;8.40;99.90;;;;;;4967445;28;20687;-79
2023/03/06 14:15:45;;;;;;;13.03;11.83;;;8.40;99.90;;;;;;4952728;28;20221;-78
2023/03/06 14:18:19;;;;;;;13.00;11.90;;;8.40;99.90;;;;;;4971175;28;20197;-80
2023/03/06 14:20:51;;;;;;;13.33;12.13;;;8.30;99.90;;;;;;4968278;28;20217;-79
2023/03/06 14:23:26;;;;;;;12.67;11.57;;;8.20;99.90;;;;;;4961877;28;20261;-79
2023/03/06 14:26:13;;;;;;;13.00;11.80;;;8.20;99.90;;;;;;4966711;28;20205;-79
2023/03/06 14:28:41;;;;;;;12.10;10.90;;;8.10;99.90;;;;;;4956663;28;20218;-78
2023/03/06 14:31:16;;;;;;;11.80;10.70;;;8.00;99.90;;;;;;4943659;28;20223;-78
2023/03/06 14:33:51;;;;;;;12.97;11.77;;;7.90;99.90;;;;;;4961876;28;20209;-81
2023/03/06 14:36:21;;;;;;;12.70;11.47;;;7.80;99.90;;;;;;4963544;28;20265;-82
2023/03/06 14:38:51;;;;;;;13.27;11.80;;;7.60;99.90;;;;;;4958808;28;20617;-84
2023/03/06 14:41:26;;;;;;;13.67;12.27;;;7.40;99.90;;;;;;4953440;28;20218;-82
2023/03/06 14:44:16;;;;;;;13.33;12.07;;;7.20;99.90;;;;;;4955222;28;20217;-85
2023/03/06 14:46:43;;;;;;;12.07;10.43;;;7.10;99.90;;;;;;4973330;28;20222;-83
2023/03/06 14:49:12;;;;;;;11.70;10.60;;;7.00;99.90;;;;;;4970282;28;20225;-82
2023/03/06 14:51:44;;;;;;;12.03;10.90;;;7.00;99.90;;;;;;4966825;28;20217;-84
2023/03/06 14:54:16;;;;;;;11.20;10.20;;;7.00;99.90;;;;;;4966785;28;20202;-83
2023/03/06 14:56:44;;;;;;;12.00;10.90;;;7.00;99.90;;;;;;4969305;28;20194;-83
2023/03/06 14:59:15;;;;;;;11.37;10.40;;;7.00;99.90;;;;;;4973186;28;20226;-83
2023/03/06 15:01:45;;;;;;;11.50;10.40;;;7.00;99.90;;;;;;4958808;28;20248;-80
2023/03/06 15:04:20;;;;;;;11.93;10.83;;;7.00;99.90;;;;;;4965617;28;20206;-80
2023/03/06 15:06:48;;;;;;;11.40;10.40;;;6.90;99.90;;;;;;4968564;28;20249;-82
2023/03/06 15:09:19;;;;;;;11.03;10.13;;;7.00;99.90;;;;;;4965080;28;20202;-80
2023/03/06 15:11:54;;;;;;;11.90;10.70;;;7.00;99.90;;;;;;4952183;28;20221;-79
2023/03/06 15:14:26;;;;;;;11.90;10.80;;;6.90;99.90;;;;;;4950391;28;20261;-80
2023/03/06 15:16:53;;;;;;;11.60;10.53;;;6.90;99.90;;;;;;4954362;28;20198;-80
2023/03/06 15:19:21;;;;;;;11.97;10.87;;;6.90;99.90;;;;;;4952991;28;20293;-79
2023/03/06 15:21:51;;;;;;;11.90;10.80;;;6.80;99.90;;;;;;4954361;28;20221;-80
2023/03/06 15:24:32;;;;;;;11.37;10.47;;;6.80;99.90;;;;;;4954271;28;20258;-80
2023/03/06 15:27:02;;;;;;;11.50;10.40;;;6.80;99.90;;;;;;4956650;28;20206;-86
2023/03/06 15:29:29;;;;;;;13.47;12.10;;;6.70;99.90;;;;;;4955207;28;20303;-79
2023/03/06 15:32:15;;;;;;;12.33;11.23;;;6.60;99.90;;;;;;4954845;28;20233;-79
2023/03/06 15:34:42;;;;;;;13.80;12.40;;;6.50;99.90;;;;;;4949325;28;20571;-80
2023/03/06 15:37:27;;;;;;;13.13;11.93;;;6.40;99.90;;;;;;4955466;28;20265;-81
2023/03/06 15:40:08;;;;;;;13.27;11.97;;;6.30;99.90;;;;;;4953683;28;20197;-81
2023/03/06 15:42:36;;;;;;;12.83;11.63;;;6.20;99.90;;;;;;4958574;28;20280;-82
2023/03/06 15:45:15;;;;;;;13.40;12.20;;;6.20;99.90;;;;;;4962728;28;20210;-80
2023/03/06 15:47:42;;;;;;;13.13;11.97;;;6.10;99.90;;;;;;4961367;28;20209;-81
2023/03/06 15:50:14;;;;;;;13.87;12.57;;;6.10;99.90;;;;;;4960353;28;20228;-79
2023/03/06 15:52:43;;;;;;;13.90;12.63;;;6.00;99.90;;;;;;4961787;28;20224;-81
2023/03/06 15:55:12;;;;;;;12.27;11.33;;;5.90;99.90;;;;;;4963824;28;20210;-80
2023/03/06 15:57:43;;;;;;;13.20;12.00;;;5.90;99.90;;;;;;4954561;28;20208;-81
2023/03/06 16:00:21;;;;;;;13.43;12.23;;;5.80;99.90;;;;;;4965564;28;20200;-80